sensor_id;sensor_type;location;lat;lon;timestamp;P1;durP1;ratioP1;P2;durP2;ratioP2
19225;SDS011;9747;48.536;12.522;2022-11-23T00:01:38;1.40;;;1.33;;
19225;SDS011;9747;48.536;12.522;2022-11-23T00:04:07;1.40;;;1.30;;
19225;SDS011;9747;48.536;12.522;2022-11-23T00:06:36;1.50;;;1.40;;
19225;SDS011;9747;48.536;12.522;2022-11-23T00:09:04;1.52;;;1.33;;
19225;SDS011;9747;48.536;12.522;2022-11-23T00:11:33;1.40;;;1.30;;
19225;SDS011;9747;48.536;12.522;2022-11-23T00:14:01;1.88;;;1.30;;
19225;SDS011;9747;48.536;12.522;2022-11-23T00:16:29;1.30;;;1.30;;
19225;SDS011;9747;48.536;12.522;2022-11-23T00:18:58;1.30;;;1.30;;
19225;SDS011;9747;48.536;12.522;2022-11-23T00:21:27;1.52;;;1.48;;
19225;SDS011;9747;48.536;12.522;2022-11-23T00:23:56;1.75;;;1.40;;
19225;SDS011;9747;48.536;12.522;2022-11-23T00:26:24;1.27;;;1.27;;
19225;SDS011;9747;48.536;12.522;2022-11-23T00:28:51;1.27;;;1.20;;
19225;SDS011;9747;48.536;12.522;2022-11-23T00:31:19;1.42;;;1.40;;
19225;SDS011;9747;48.536;12.522;2022-11-23T00:33:47;1.40;;;1.30;;
19225;SDS011;9747;48.536;12.522;2022-11-23T00:36:17;1.30;;;1.30;;
19225;SDS011;9747;48.536;12.522;2022-11-23T00:38:45;1.60;;;1.50;;
19225;SDS011;9747;48.536;12.522;2022-11-23T00:41:15;1.40;;;1.40;;
19225;SDS011;9747;48.536;12.522;2022-11-23T00:43:45;2.60;;;1.40;;
19225;SDS011;9747;48.536;12.522;2022-11-23T00:46:14;1.50;;;1.40;;
19225;SDS011;9747;48.536;12.522;2022-11-23T00:48:44;1.30;;;1.30;;
19225;SDS011;9747;48.536;12.522;2022-11-23T00:51:14;1.50;;;1.40;;
19225;SDS011;9747;48.536;12.522;2022-11-23T00:53:44;1.20;;;1.20;;
19225;SDS011;9747;48.536;12.522;2022-11-23T00:56:12;1.50;;;1.40;;
19225;SDS011;9747;48.536;12.522;2022-11-23T00:58:39;1.38;;;1.38;;
19225;SDS011;9747;48.536;12.522;2022-11-23T01:01:08;1.65;;;1.55;;
19225;SDS011;9747;48.536;12.522;2022-11-23T01:03:38;1.25;;;1.20;;
19225;SDS011;9747;48.536;12.522;2022-11-23T01:06:08;1.25;;;1.25;;
19225;SDS011;9747;48.536;12.522;2022-11-23T01:08:39;1.33;;;1.33;;
19225;SDS011;9747;48.536;12.522;2022-11-23T01:11:08;1.30;;;1.30;;
19225;SDS011;9747;48.536;12.522;2022-11-23T01:13:37;1.20;;;1.20;;
19225;SDS011;9747;48.536;12.522;2022-11-23T01:16:07;1.50;;;1.40;;
19225;SDS011;9747;48.536;12.522;2022-11-23T01:18:38;1.15;;;1.13;;
19225;SDS011;9747;48.536;12.522;2022-11-23T01:21:06;1.45;;;1.40;;
19225;SDS011;9747;48.536;12.522;2022-11-23T01:23:33;1.40;;;1.40;;
19225;SDS011;9747;48.536;12.522;2022-11-23T01:26:06;1.27;;;1.27;;
19225;SDS011;9747;48.536;12.522;2022-11-23T01:28:36;1.45;;;1.38;;
19225;SDS011;9747;48.536;12.522;2022-11-23T01:31:05;1.15;;;1.15;;
19225;SDS011;9747;48.536;12.522;2022-11-23T01:33:35;1.40;;;1.40;;
19225;SDS011;9747;48.536;12.522;2022-11-23T01:36:07;1.20;;;1.20;;
19225;SDS011;9747;48.536;12.522;2022-11-23T01:38:36;1.45;;;1.38;;
19225;SDS011;9747;48.536;12.522;2022-11-23T01:41:04;1.40;;;1.40;;
19225;SDS011;9747;48.536;12.522;2022-11-23T01:43:33;1.30;;;1.30;;
19225;SDS011;9747;48.536;12.522;2022-11-23T01:46:01;1.25;;;1.25;;
19225;SDS011;9747;48.536;12.522;2022-11-23T01:48:29;1.20;;;1.20;;
19225;SDS011;9747;48.536;12.522;2022-11-23T01:50:59;1.13;;;1.13;;
19225;SDS011;9747;48.536;12.522;2022-11-23T01:53:31;1.30;;;1.20;;
19225;SDS011;9747;48.536;12.522;2022-11-23T01:55:59;1.33;;;1.30;;
19225;SDS011;9747;48.536;12.522;2022-11-23T01:58:32;1.20;;;1.20;;
19225;SDS011;9747;48.536;12.522;2022-11-23T02:01:04;1.40;;;1.40;;
19225;SDS011;9747;48.536;12.522;2022-11-23T02:03:32;1.20;;;1.20;;
19225;SDS011;9747;48.536;12.522;2022-11-23T02:06:07;1.58;;;1.58;;
19225;SDS011;9747;48.536;12.522;2022-11-23T02:08:39;1.30;;;1.30;;
19225;SDS011;9747;48.536;12.522;2022-11-23T02:11:07;1.38;;;1.38;;
19225;SDS011;9747;48.536;12.522;2022-11-23T02:13:37;1.30;;;1.30;;
19225;SDS011;9747;48.536;12.522;2022-11-23T02:16:06;1.33;;;1.33;;
19225;SDS011;9747;48.536;12.522;2022-11-23T02:18:35;1.20;;;1.20;;
19225;SDS011;9747;48.536;12.522;2022-11-23T02:21:04;1.50;;;1.50;;
19225;SDS011;9747;48.536;12.522;2022-11-23T02:23:34;1.52;;;1.38;;
19225;SDS011;9747;48.536;12.522;2022-11-23T02:26:13;1.40;;;1.35;;
19225;SDS011;9747;48.536;12.522;2022-11-23T02:28:44;1.30;;;1.30;;
19225;SDS011;9747;48.536;12.522;2022-11-23T02:31:14;1.20;;;1.20;;
19225;SDS011;9747;48.536;12.522;2022-11-23T02:33:43;1.33;;;1.33;;
19225;SDS011;9747;48.536;12.522;2022-11-23T02:36:25;1.50;;;1.50;;
19225;SDS011;9747;48.536;12.522;2022-11-23T02:39:04;1.45;;;1.40;;
19225;SDS011;9747;48.536;12.522;2022-11-23T02:41:39;1.42;;;1.38;;
19225;SDS011;9747;48.536;12.522;2022-11-23T02:44:11;1.50;;;1.50;;
19225;SDS011;9747;48.536;12.522;2022-11-23T02:46:48;1.20;;;1.20;;
19225;SDS011;9747;48.536;12.522;2022-11-23T02:49:16;1.25;;;1.25;;
19225;SDS011;9747;48.536;12.522;2022-11-23T02:51:43;1.77;;;1.67;;
19225;SDS011;9747;48.536;12.522;2022-11-23T02:54:11;1.60;;;1.50;;
19225;SDS011;9747;48.536;12.522;2022-11-23T02:56:40;1.35;;;1.35;;
19225;SDS011;9747;48.536;12.522;2022-11-23T02:59:07;1.48;;;1.45;;
19225;SDS011;9747;48.536;12.522;2022-11-23T03:01:35;1.60;;;1.50;;
19225;SDS011;9747;48.536;12.522;2022-11-23T03:04:04;1.50;;;1.45;;
19225;SDS011;9747;48.536;12.522;2022-11-23T03:06:32;1.50;;;1.50;;
19225;SDS011;9747;48.536;12.522;2022-11-23T03:08:59;1.40;;;1.40;;
19225;SDS011;9747;48.536;12.522;2022-11-23T03:11:27;1.15;;;1.15;;
19225;SDS011;9747;48.536;12.522;2022-11-23T03:13:55;1.48;;;1.48;;
19225;SDS011;9747;48.536;12.522;2022-11-23T03:16:23;1.52;;;1.50;;
19225;SDS011;9747;48.536;12.522;2022-11-23T03:18:51;1.40;;;1.40;;
19225;SDS011;9747;48.536;12.522;2022-11-23T03:21:18;1.40;;;1.40;;
19225;SDS011;9747;48.536;12.522;2022-11-23T03:23:46;1.48;;;1.48;;
19225;SDS011;9747;48.536;12.522;2022-11-23T03:26:13;1.30;;;1.30;;
19225;SDS011;9747;48.536;12.522;2022-11-23T03:28:49;1.38;;;1.38;;
19225;SDS011;9747;48.536;12.522;2022-11-23T03:31:20;1.40;;;1.40;;
19225;SDS011;9747;48.536;12.522;2022-11-23T03:33:48;1.50;;;1.40;;
19225;SDS011;9747;48.536;12.522;2022-11-23T03:36:15;1.33;;;1.33;;
19225;SDS011;9747;48.536;12.522;2022-11-23T03:38:46;1.45;;;1.30;;
19225;SDS011;9747;48.536;12.522;2022-11-23T03:41:27;1.35;;;1.35;;
19225;SDS011;9747;48.536;12.522;2022-11-23T03:43:57;1.40;;;1.40;;
19225;SDS011;9747;48.536;12.522;2022-11-23T03:46:26;1.50;;;1.50;;
19225;SDS011;9747;48.536;12.522;2022-11-23T03:48:53;1.33;;;1.33;;
19225;SDS011;9747;48.536;12.522;2022-11-23T03:51:21;1.38;;;1.38;;
19225;SDS011;9747;48.536;12.522;2022-11-23T03:53:49;1.40;;;1.40;;
19225;SDS011;9747;48.536;12.522;2022-11-23T03:56:16;1.65;;;1.50;;
19225;SDS011;9747;48.536;12.522;2022-11-23T03:58:45;1.63;;;1.63;;
19225;SDS011;9747;48.536;12.522;2022-11-23T04:01:13;1.50;;;1.50;;
19225;SDS011;9747;48.536;12.522;2022-11-23T04:03:44;1.65;;;1.58;;
19225;SDS011;9747;48.536;12.522;2022-11-23T04:06:19;1.38;;;1.38;;
19225;SDS011;9747;48.536;12.522;2022-11-23T04:09:05;1.60;;;1.55;;
19225;SDS011;9747;48.536;12.522;2022-11-23T04:11:53;1.45;;;1.45;;
19225;SDS011;9747;48.536;12.522;2022-11-23T04:14:20;1.30;;;1.30;;
19225;SDS011;9747;48.536;12.522;2022-11-23T04:16:48;1.30;;;1.30;;
19225;SDS011;9747;48.536;12.522;2022-11-23T04:19:17;1.50;;;1.50;;
19225;SDS011;9747;48.536;12.522;2022-11-23T04:21:44;1.40;;;1.40;;
19225;SDS011;9747;48.536;12.522;2022-11-23T04:24:12;1.60;;;1.50;;
19225;SDS011;9747;48.536;12.522;2022-11-23T04:26:41;1.30;;;1.30;;
19225;SDS011;9747;48.536;12.522;2022-11-23T04:29:09;1.40;;;1.40;;
19225;SDS011;9747;48.536;12.522;2022-11-23T04:31:41;1.60;;;1.50;;
19225;SDS011;9747;48.536;12.522;2022-11-23T04:34:16;1.67;;;1.58;;
19225;SDS011;9747;48.536;12.522;2022-11-23T04:36:46;1.35;;;1.35;;
19225;SDS011;9747;48.536;12.522;2022-11-23T04:39:13;1.35;;;1.35;;
19225;SDS011;9747;48.536;12.522;2022-11-23T04:42:04;1.45;;;1.45;;
19225;SDS011;9747;48.536;12.522;2022-11-23T04:44:32;1.60;;;1.50;;
19225;SDS011;9747;48.536;12.522;2022-11-23T04:47:03;1.30;;;1.30;;
19225;SDS011;9747;48.536;12.522;2022-11-23T04:49:35;1.48;;;1.42;;
19225;SDS011;9747;48.536;12.522;2022-11-23T04:52:03;1.40;;;1.40;;
19225;SDS011;9747;48.536;12.522;2022-11-23T04:54:38;1.40;;;1.40;;
19225;SDS011;9747;48.536;12.522;2022-11-23T04:57:07;1.70;;;1.60;;
19225;SDS011;9747;48.536;12.522;2022-11-23T04:59:36;1.98;;;1.45;;
19225;SDS011;9747;48.536;12.522;2022-11-23T05:02:04;1.55;;;1.45;;
19225;SDS011;9747;48.536;12.522;2022-11-23T05:05:08;1.50;;;1.48;;
19225;SDS011;9747;48.536;12.522;2022-11-23T05:07:37;1.45;;;1.38;;
19225;SDS011;9747;48.536;12.522;2022-11-23T05:10:05;1.65;;;1.58;;
19225;SDS011;9747;48.536;12.522;2022-11-23T05:12:34;1.40;;;1.40;;
19225;SDS011;9747;48.536;12.522;2022-11-23T05:15:02;1.35;;;1.35;;
19225;SDS011;9747;48.536;12.522;2022-11-23T05:17:34;1.60;;;1.58;;
19225;SDS011;9747;48.536;12.522;2022-11-23T05:20:04;1.60;;;1.50;;
19225;SDS011;9747;48.536;12.522;2022-11-23T05:22:37;2.30;;;1.30;;
19225;SDS011;9747;48.536;12.522;2022-11-23T05:25:08;1.45;;;1.45;;
19225;SDS011;9747;48.536;12.522;2022-11-23T05:27:37;1.60;;;1.50;;
19225;SDS011;9747;48.536;12.522;2022-11-23T05:30:06;1.55;;;1.45;;
19225;SDS011;9747;48.536;12.522;2022-11-23T05:32:35;2.17;;;1.65;;
19225;SDS011;9747;48.536;12.522;2022-11-23T05:35:04;2.97;;;1.70;;
19225;SDS011;9747;48.536;12.522;2022-11-23T05:37:34;3.25;;;1.65;;
19225;SDS011;9747;48.536;12.522;2022-11-23T05:40:07;4.25;;;1.40;;
19225;SDS011;9747;48.536;12.522;2022-11-23T05:42:36;3.22;;;1.90;;
19225;SDS011;9747;48.536;12.522;2022-11-23T05:45:13;3.67;;;1.80;;
19225;SDS011;9747;48.536;12.522;2022-11-23T05:47:48;2.53;;;1.38;;
19225;SDS011;9747;48.536;12.522;2022-11-23T05:50:24;3.30;;;1.60;;
19225;SDS011;9747;48.536;12.522;2022-11-23T05:53:13;3.92;;;1.95;;
19225;SDS011;9747;48.536;12.522;2022-11-23T05:55:44;1.73;;;1.42;;
19225;SDS011;9747;48.536;12.522;2022-11-23T05:58:12;2.83;;;1.77;;
19225;SDS011;9747;48.536;12.522;2022-11-23T06:00:40;3.10;;;1.70;;
19225;SDS011;9747;48.536;12.522;2022-11-23T06:03:08;4.88;;;1.58;;
19225;SDS011;9747;48.536;12.522;2022-11-23T06:05:35;3.72;;;1.40;;
19225;SDS011;9747;48.536;12.522;2022-11-23T06:08:03;2.25;;;1.63;;
19225;SDS011;9747;48.536;12.522;2022-11-23T06:10:31;2.78;;;1.52;;
19225;SDS011;9747;48.536;12.522;2022-11-23T06:13:04;3.50;;;1.50;;
19225;SDS011;9747;48.536;12.522;2022-11-23T06:15:32;3.42;;;1.55;;
19225;SDS011;9747;48.536;12.522;2022-11-23T06:18:01;7.70;;;1.73;;
19225;SDS011;9747;48.536;12.522;2022-11-23T06:20:37;2.72;;;1.55;;
19225;SDS011;9747;48.536;12.522;2022-11-23T06:23:05;3.50;;;1.52;;
19225;SDS011;9747;48.536;12.522;2022-11-23T06:25:32;2.00;;;1.67;;
19225;SDS011;9747;48.536;12.522;2022-11-23T06:28:16;1.60;;;1.50;;
19225;SDS011;9747;48.536;12.522;2022-11-23T06:30:46;2.10;;;1.55;;
19225;SDS011;9747;48.536;12.522;2022-11-23T06:33:14;1.83;;;1.60;;
19225;SDS011;9747;48.536;12.522;2022-11-23T06:35:51;4.45;;;2.28;;
19225;SDS011;9747;48.536;12.522;2022-11-23T06:38:20;3.60;;;3.30;;
19225;SDS011;9747;48.536;12.522;2022-11-23T06:40:56;4.68;;;3.47;;
19225;SDS011;9747;48.536;12.522;2022-11-23T06:43:27;3.00;;;2.80;;
19225;SDS011;9747;48.536;12.522;2022-11-23T06:45:55;8.70;;;4.03;;
19225;SDS011;9747;48.536;12.522;2022-11-23T06:48:27;19.00;;;4.50;;
19225;SDS011;9747;48.536;12.522;2022-11-23T06:50:57;9.88;;;3.55;;
19225;SDS011;9747;48.536;12.522;2022-11-23T06:53:25;10.32;;;3.00;;
19225;SDS011;9747;48.536;12.522;2022-11-23T06:55:58;15.95;;;3.85;;
19225;SDS011;9747;48.536;12.522;2022-11-23T06:58:30;7.97;;;2.80;;
19225;SDS011;9747;48.536;12.522;2022-11-23T07:00:59;6.88;;;2.90;;
19225;SDS011;9747;48.536;12.522;2022-11-23T07:03:31;7.10;;;2.60;;
19225;SDS011;9747;48.536;12.522;2022-11-23T07:06:04;11.35;;;2.80;;
19225;SDS011;9747;48.536;12.522;2022-11-23T07:08:33;11.20;;;2.47;;
19225;SDS011;9747;48.536;12.522;2022-11-23T07:11:14;3.35;;;2.30;;
19225;SDS011;9747;48.536;12.522;2022-11-23T07:13:43;5.93;;;2.60;;
19225;SDS011;9747;48.536;12.522;2022-11-23T07:16:11;6.03;;;2.50;;
19225;SDS011;9747;48.536;12.522;2022-11-23T07:18:39;7.68;;;2.70;;
19225;SDS011;9747;48.536;12.522;2022-11-23T07:21:06;8.02;;;2.47;;
19225;SDS011;9747;48.536;12.522;2022-11-23T07:23:34;9.45;;;2.83;;
19225;SDS011;9747;48.536;12.522;2022-11-23T07:26:05;5.68;;;2.50;;
19225;SDS011;9747;48.536;12.522;2022-11-23T07:28:33;6.97;;;2.70;;
19225;SDS011;9747;48.536;12.522;2022-11-23T07:31:02;11.43;;;3.17;;
19225;SDS011;9747;48.536;12.522;2022-11-23T07:33:30;5.80;;;2.53;;
19225;SDS011;9747;48.536;12.522;2022-11-23T07:35:59;7.85;;;2.67;;
19225;SDS011;9747;48.536;12.522;2022-11-23T07:38:27;7.85;;;2.60;;
19225;SDS011;9747;48.536;12.522;2022-11-23T07:40:57;8.00;;;2.60;;
19225;SDS011;9747;48.536;12.522;2022-11-23T07:43:44;9.55;;;3.00;;
19225;SDS011;9747;48.536;12.522;2022-11-23T07:46:13;11.80;;;3.28;;
19225;SDS011;9747;48.536;12.522;2022-11-23T07:48:40;9.40;;;3.35;;
19225;SDS011;9747;48.536;12.522;2022-11-23T07:51:08;9.93;;;3.22;;
19225;SDS011;9747;48.536;12.522;2022-11-23T07:53:35;8.70;;;3.03;;
19225;SDS011;9747;48.536;12.522;2022-11-23T07:56:03;6.88;;;3.10;;
19225;SDS011;9747;48.536;12.522;2022-11-23T07:58:31;6.53;;;3.03;;
19225;SDS011;9747;48.536;12.522;2022-11-23T08:00:58;24.13;;;3.97;;
19225;SDS011;9747;48.536;12.522;2022-11-23T08:03:27;8.70;;;3.08;;
19225;SDS011;9747;48.536;12.522;2022-11-23T08:05:55;8.70;;;3.40;;
19225;SDS011;9747;48.536;12.522;2022-11-23T08:08:22;8.77;;;3.17;;
19225;SDS011;9747;48.536;12.522;2022-11-23T08:10:50;9.93;;;3.13;;
19225;SDS011;9747;48.536;12.522;2022-11-23T08:13:17;6.57;;;3.00;;
19225;SDS011;9747;48.536;12.522;2022-11-23T08:15:44;12.10;;;3.20;;
19225;SDS011;9747;48.536;12.522;2022-11-23T08:18:12;7.22;;;2.95;;
19225;SDS011;9747;48.536;12.522;2022-11-23T08:20:41;8.95;;;3.03;;
19225;SDS011;9747;48.536;12.522;2022-11-23T08:23:08;8.23;;;3.00;;
19225;SDS011;9747;48.536;12.522;2022-11-23T08:25:36;4.43;;;2.80;;
19225;SDS011;9747;48.536;12.522;2022-11-23T08:28:03;6.47;;;2.80;;
19225;SDS011;9747;48.536;12.522;2022-11-23T08:30:32;7.32;;;3.10;;
19225;SDS011;9747;48.536;12.522;2022-11-23T08:33:01;7.53;;;2.95;;
19225;SDS011;9747;48.536;12.522;2022-11-23T08:35:31;6.88;;;2.90;;
19225;SDS011;9747;48.536;12.522;2022-11-23T08:38:00;6.55;;;2.72;;
19225;SDS011;9747;48.536;12.522;2022-11-23T08:40:28;8.27;;;2.60;;
19225;SDS011;9747;48.536;12.522;2022-11-23T08:42:55;6.22;;;2.80;;
19225;SDS011;9747;48.536;12.522;2022-11-23T08:45:22;5.22;;;2.63;;
19225;SDS011;9747;48.536;12.522;2022-11-23T08:47:50;4.53;;;2.53;;
19225;SDS011;9747;48.536;12.522;2022-11-23T08:50:20;6.47;;;2.65;;
19225;SDS011;9747;48.536;12.522;2022-11-23T08:52:47;4.05;;;2.40;;
19225;SDS011;9747;48.536;12.522;2022-11-23T08:55:20;7.82;;;2.60;;
19225;SDS011;9747;48.536;12.522;2022-11-23T08:57:48;6.75;;;2.40;;
19225;SDS011;9747;48.536;12.522;2022-11-23T09:00:15;3.55;;;2.33;;
19225;SDS011;9747;48.536;12.522;2022-11-23T09:02:44;3.38;;;2.20;;
19225;SDS011;9747;48.536;12.522;2022-11-23T09:05:12;2.75;;;2.30;;
19225;SDS011;9747;48.536;12.522;2022-11-23T09:07:39;3.90;;;2.50;;
19225;SDS011;9747;48.536;12.522;2022-11-23T09:10:07;6.57;;;2.42;;
19225;SDS011;9747;48.536;12.522;2022-11-23T09:12:36;4.88;;;2.25;;
19225;SDS011;9747;48.536;12.522;2022-11-23T09:15:03;5.60;;;2.28;;
19225;SDS011;9747;48.536;12.522;2022-11-23T09:17:32;5.32;;;2.20;;
19225;SDS011;9747;48.536;12.522;2022-11-23T09:20:00;3.92;;;2.47;;
19225;SDS011;9747;48.536;12.522;2022-11-23T09:22:27;4.30;;;2.28;;
19225;SDS011;9747;48.536;12.522;2022-11-23T09:24:55;3.80;;;2.20;;
19225;SDS011;9747;48.536;12.522;2022-11-23T09:27:22;4.40;;;2.30;;
19225;SDS011;9747;48.536;12.522;2022-11-23T09:29:51;4.85;;;2.40;;
19225;SDS011;9747;48.536;12.522;2022-11-23T09:32:19;2.38;;;1.80;;
19225;SDS011;9747;48.536;12.522;2022-11-23T09:34:46;3.20;;;2.17;;
19225;SDS011;9747;48.536;12.522;2022-11-23T09:37:13;3.65;;;1.98;;
19225;SDS011;9747;48.536;12.522;2022-11-23T09:39:41;5.22;;;2.17;;
19225;SDS011;9747;48.536;12.522;2022-11-23T09:42:12;4.15;;;2.10;;
19225;SDS011;9747;48.536;12.522;2022-11-23T09:45:13;3.45;;;2.03;;
19225;SDS011;9747;48.536;12.522;2022-11-23T09:51:10;5.90;;;1.98;;
19225;SDS011;9747;48.536;12.522;2022-11-23T09:53:43;2.30;;;1.70;;
19225;SDS011;9747;48.536;12.522;2022-11-23T09:56:15;2.65;;;1.83;;
19225;SDS011;9747;48.536;12.522;2022-11-23T09:58:44;2.83;;;1.73;;
19225;SDS011;9747;48.536;12.522;2022-11-23T10:01:14;2.78;;;1.95;;
19225;SDS011;9747;48.536;12.522;2022-11-23T10:03:42;2.42;;;1.83;;
19225;SDS011;9747;48.536;12.522;2022-11-23T10:06:16;2.50;;;1.60;;
19225;SDS011;9747;48.536;12.522;2022-11-23T10:08:48;3.13;;;1.90;;
19225;SDS011;9747;48.536;12.522;2022-11-23T10:11:38;5.40;;;1.67;;
19225;SDS011;9747;48.536;12.522;2022-11-23T10:14:23;2.72;;;1.77;;
19225;SDS011;9747;48.536;12.522;2022-11-23T10:17:23;2.92;;;2.10;;
19225;SDS011;9747;48.536;12.522;2022-11-23T10:20:06;2.70;;;1.77;;
19225;SDS011;9747;48.536;12.522;2022-11-23T10:22:54;2.65;;;2.00;;
19225;SDS011;9747;48.536;12.522;2022-11-23T10:25:25;1.95;;;1.70;;
19225;SDS011;9747;48.536;12.522;2022-11-23T10:27:57;2.60;;;1.70;;
19225;SDS011;9747;48.536;12.522;2022-11-23T10:30:27;1.77;;;1.60;;
19225;SDS011;9747;48.536;12.522;2022-11-23T10:32:57;1.92;;;1.75;;
19225;SDS011;9747;48.536;12.522;2022-11-23T10:35:28;2.17;;;1.70;;
19225;SDS011;9747;48.536;12.522;2022-11-23T10:38:07;3.15;;;1.75;;
19225;SDS011;9747;48.536;12.522;2022-11-23T10:40:36;4.63;;;2.22;;
19225;SDS011;9747;48.536;12.522;2022-11-23T10:43:09;2.15;;;1.70;;
19225;SDS011;9747;48.536;12.522;2022-11-23T10:45:41;1.80;;;1.58;;
19225;SDS011;9747;48.536;12.522;2022-11-23T10:48:10;3.00;;;1.95;;
19225;SDS011;9747;48.536;12.522;2022-11-23T10:50:37;1.98;;;1.77;;
19225;SDS011;9747;48.536;12.522;2022-11-23T10:53:17;2.17;;;1.98;;
19225;SDS011;9747;48.536;12.522;2022-11-23T10:55:48;2.20;;;1.75;;
19225;SDS011;9747;48.536;12.522;2022-11-23T10:58:26;4.63;;;2.45;;
19225;SDS011;9747;48.536;12.522;2022-11-23T11:00:57;7.18;;;4.82;;
19225;SDS011;9747;48.536;12.522;2022-11-23T11:03:30;3.55;;;3.22;;
19225;SDS011;9747;48.536;12.522;2022-11-23T11:05:59;4.05;;;3.13;;
19225;SDS011;9747;48.536;12.522;2022-11-23T11:08:28;3.83;;;3.05;;
19225;SDS011;9747;48.536;12.522;2022-11-23T11:10:57;5.25;;;4.43;;
19225;SDS011;9747;48.536;12.522;2022-11-23T11:13:28;7.65;;;5.97;;
19225;SDS011;9747;48.536;12.522;2022-11-23T11:15:59;9.38;;;6.97;;
19225;SDS011;9747;48.536;12.522;2022-11-23T11:18:30;9.98;;;7.72;;
19225;SDS011;9747;48.536;12.522;2022-11-23T11:21:01;10.65;;;7.75;;
19225;SDS011;9747;48.536;12.522;2022-11-23T11:23:31;9.15;;;7.05;;
19225;SDS011;9747;48.536;12.522;2022-11-23T11:26:04;11.70;;;7.30;;
19225;SDS011;9747;48.536;12.522;2022-11-23T11:28:36;8.27;;;6.50;;
19225;SDS011;9747;48.536;12.522;2022-11-23T11:31:12;7.05;;;5.25;;
19225;SDS011;9747;48.536;12.522;2022-11-23T11:33:57;8.15;;;6.25;;
19225;SDS011;9747;48.536;12.522;2022-11-23T11:36:33;11.27;;;7.15;;
19225;SDS011;9747;48.536;12.522;2022-11-23T11:39:05;8.43;;;6.20;;
19225;SDS011;9747;48.536;12.522;2022-11-23T11:41:40;7.28;;;5.70;;
19225;SDS011;9747;48.536;12.522;2022-11-23T11:44:11;8.52;;;5.32;;
19225;SDS011;9747;48.536;12.522;2022-11-23T11:46:44;8.90;;;5.25;;
19225;SDS011;9747;48.536;12.522;2022-11-23T11:49:16;8.45;;;6.85;;
19225;SDS011;9747;48.536;12.522;2022-11-23T11:51:48;6.10;;;5.45;;
19225;SDS011;9747;48.536;12.522;2022-11-23T11:54:20;8.20;;;5.40;;
19225;SDS011;9747;48.536;12.522;2022-11-23T11:56:53;6.55;;;5.47;;
19225;SDS011;9747;48.536;12.522;2022-11-23T11:59:24;5.97;;;4.60;;
19225;SDS011;9747;48.536;12.522;2022-11-23T12:01:55;5.80;;;4.43;;
19225;SDS011;9747;48.536;12.522;2022-11-23T12:04:33;5.65;;;4.45;;
19225;SDS011;9747;48.536;12.522;2022-11-23T12:07:07;4.85;;;4.07;;
19225;SDS011;9747;48.536;12.522;2022-11-23T12:09:39;6.25;;;4.38;;
19225;SDS011;9747;48.536;12.522;2022-11-23T12:12:11;5.38;;;3.80;;
19225;SDS011;9747;48.536;12.522;2022-11-23T12:14:42;5.43;;;3.90;;
19225;SDS011;9747;48.536;12.522;2022-11-23T12:17:15;6.78;;;4.10;;
19225;SDS011;9747;48.536;12.522;2022-11-23T12:20:18;5.20;;;3.30;;
19225;SDS011;9747;48.536;12.522;2022-11-23T12:22:59;6.78;;;3.63;;
19225;SDS011;9747;48.536;12.522;2022-11-23T12:25:37;3.75;;;3.22;;
19225;SDS011;9747;48.536;12.522;2022-11-23T12:28:16;4.25;;;3.10;;
19225;SDS011;9747;48.536;12.522;2022-11-23T12:30:59;3.85;;;3.20;;
19225;SDS011;9747;48.536;12.522;2022-11-23T12:33:40;4.03;;;3.38;;
19225;SDS011;9747;48.536;12.522;2022-11-23T12:36:30;6.38;;;2.97;;
19225;SDS011;9747;48.536;12.522;2022-11-23T12:39:31;4.13;;;2.75;;
19225;SDS011;9747;48.536;12.522;2022-11-23T12:42:28;3.75;;;2.55;;
19225;SDS011;9747;48.536;12.522;2022-11-23T12:48:02;6.53;;;3.20;;
19225;SDS011;9747;48.536;12.522;2022-11-23T12:50:46;2.80;;;2.60;;
19225;SDS011;9747;48.536;12.522;2022-11-23T12:53:29;3.00;;;2.30;;
19225;SDS011;9747;48.536;12.522;2022-11-23T12:56:06;3.92;;;2.80;;
19225;SDS011;9747;48.536;12.522;2022-11-23T12:58:40;2.88;;;2.58;;
19225;SDS011;9747;48.536;12.522;2022-11-23T13:01:09;3.45;;;2.33;;
19225;SDS011;9747;48.536;12.522;2022-11-23T13:07:16;2.42;;;2.22;;
19225;SDS011;9747;48.536;12.522;2022-11-23T13:13:26;3.78;;;2.15;;
19225;SDS011;9747;48.536;12.522;2022-11-23T13:19:33;2.20;;;2.00;;
19225;SDS011;9747;48.536;12.522;2022-11-23T13:22:19;2.58;;;2.10;;
19225;SDS011;9747;48.536;12.522;2022-11-23T13:27:56;2.50;;;1.90;;
19225;SDS011;9747;48.536;12.522;2022-11-23T13:30:28;4.22;;;1.92;;
19225;SDS011;9747;48.536;12.522;2022-11-23T13:32:59;2.97;;;2.00;;
19225;SDS011;9747;48.536;12.522;2022-11-23T13:35:46;3.22;;;1.77;;
19225;SDS011;9747;48.536;12.522;2022-11-23T13:38:24;2.75;;;1.80;;
19225;SDS011;9747;48.536;12.522;2022-11-23T13:41:03;1.90;;;1.75;;
19225;SDS011;9747;48.536;12.522;2022-11-23T13:44:28;3.20;;;1.80;;
19225;SDS011;9747;48.536;12.522;2022-11-23T13:47:04;3.90;;;1.83;;
19225;SDS011;9747;48.536;12.522;2022-11-23T13:49:44;2.05;;;1.48;;
19225;SDS011;9747;48.536;12.522;2022-11-23T13:52:23;1.90;;;1.60;;
19225;SDS011;9747;48.536;12.522;2022-11-23T13:54:56;2.60;;;1.58;;
19225;SDS011;9747;48.536;12.522;2022-11-23T13:57:32;2.47;;;1.50;;
19225;SDS011;9747;48.536;12.522;2022-11-23T14:06:20;2.20;;;1.30;;
19225;SDS011;9747;48.536;12.522;2022-11-23T14:09:08;2.03;;;1.48;;
19225;SDS011;9747;48.536;12.522;2022-11-23T14:11:49;1.30;;;1.30;;
19225;SDS011;9747;48.536;12.522;2022-11-23T14:14:27;2.72;;;1.45;;
19225;SDS011;9747;48.536;12.522;2022-11-23T14:17:14;1.50;;;1.40;;
19225;SDS011;9747;48.536;12.522;2022-11-23T14:20:21;4.20;;;1.90;;
19225;SDS011;9747;48.536;12.522;2022-11-23T14:23:17;3.38;;;1.60;;
19225;SDS011;9747;48.536;12.522;2022-11-23T14:26:28;4.07;;;1.42;;
19225;SDS011;9747;48.536;12.522;2022-11-23T14:29:15;1.20;;;1.17;;
19225;SDS011;9747;48.536;12.522;2022-11-23T14:32:11;1.38;;;1.27;;
19225;SDS011;9747;48.536;12.522;2022-11-23T14:35:10;3.10;;;1.48;;
19225;SDS011;9747;48.536;12.522;2022-11-23T14:37:49;1.73;;;1.35;;
19225;SDS011;9747;48.536;12.522;2022-11-23T14:40:36;1.50;;;1.40;;
19225;SDS011;9747;48.536;12.522;2022-11-23T14:43:14;1.70;;;1.38;;
19225;SDS011;9747;48.536;12.522;2022-11-23T14:45:43;1.52;;;1.30;;
19225;SDS011;9747;48.536;12.522;2022-11-23T14:48:24;2.35;;;1.35;;
19225;SDS011;9747;48.536;12.522;2022-11-23T14:50:55;1.77;;;1.42;;
19225;SDS011;9747;48.536;12.522;2022-11-23T14:53:26;2.15;;;1.27;;
19225;SDS011;9747;48.536;12.522;2022-11-23T14:55:56;4.93;;;1.40;;
19225;SDS011;9747;48.536;12.522;2022-11-23T14:58:24;1.83;;;1.38;;
19225;SDS011;9747;48.536;12.522;2022-11-23T15:00:57;1.27;;;1.13;;
19225;SDS011;9747;48.536;12.522;2022-11-23T15:03:28;1.83;;;1.30;;
19225;SDS011;9747;48.536;12.522;2022-11-23T15:06:00;1.63;;;1.30;;
19225;SDS011;9747;48.536;12.522;2022-11-23T15:08:34;1.25;;;1.15;;
19225;SDS011;9747;48.536;12.522;2022-11-23T15:11:10;1.50;;;1.30;;
19225;SDS011;9747;48.536;12.522;2022-11-23T15:13:41;3.67;;;1.25;;
19225;SDS011;9747;48.536;12.522;2022-11-23T15:16:11;1.80;;;1.40;;
19225;SDS011;9747;48.536;12.522;2022-11-23T15:18:42;1.80;;;1.15;;
19225;SDS011;9747;48.536;12.522;2022-11-23T15:21:16;2.65;;;1.90;;
19225;SDS011;9747;48.536;12.522;2022-11-23T15:23:46;1.65;;;1.50;;
19225;SDS011;9747;48.536;12.522;2022-11-23T15:26:17;1.45;;;1.33;;
19225;SDS011;9747;48.536;12.522;2022-11-23T15:28:47;3.25;;;2.25;;
19225;SDS011;9747;48.536;12.522;2022-11-23T15:31:16;3.75;;;3.42;;
19225;SDS011;9747;48.536;12.522;2022-11-23T15:33:51;2.60;;;2.40;;
19225;SDS011;9747;48.536;12.522;2022-11-23T15:36:22;2.40;;;2.30;;
19225;SDS011;9747;48.536;12.522;2022-11-23T15:38:52;2.25;;;2.05;;
19225;SDS011;9747;48.536;12.522;2022-11-23T15:41:21;2.05;;;1.95;;
19225;SDS011;9747;48.536;12.522;2022-11-23T15:43:50;2.80;;;1.88;;
19225;SDS011;9747;48.536;12.522;2022-11-23T15:46:19;3.35;;;2.67;;